Time;durP1;ratioP1;P1;durP2;ratioP2;P2;SDS_P1;SDS_P2;PMS_P1;PMS_P2;Temp;Humidity;BMP_temperature;BMP_pressure;BME280_temperature;BME280_humidity;BME280_pressure;Samples;Min_cycle;Max_cycle;Signal;HPM_P1;HPM_P2
2021/12/16 00:01:51;;;;;;;90.55;49.78;;;;;;;9.55;92.23;103313.75;7391869;19;20035;-56
2021/12/16 00:07:21;;;;;;;87.43;49.90;;;;;;;9.53;92.28;103316.38;7391401;19;20019;-57
2021/12/16 00:09:57;;;;;;;90.80;48.65;;;;;;;9.47;92.40;103311.13;7392691;19;20010;-58
2021/12/16 00:31:47;;;;;;;96.53;50.05;;;;;;;9.50;92.80;103319.00;7391362;19;20044;-58
2021/12/16 00:34:18;;;;;;;100.43;52.63;;;;;;;9.48;92.47;103315.47;7391603;19;20014;-57
2021/12/16 00:36:49;;;;;;;87.93;47.85;;;;;;;9.46;92.55;103317.25;7388932;19;20023;-56
2021/12/16 00:39:23;;;;;;;99.85;51.95;;;;;;;9.46;92.69;103312.00;7391985;19;20010;-55
2021/12/16 00:41:58;;;;;;;96.38;52.15;;;;;;;9.46;92.56;103316.38;7389529;19;20018;-58
2021/12/16 00:45:00;;;;;;;96.28;51.30;;;;;;;9.41;92.59;103318.09;7390010;19;20019;-60
2021/12/16 00:47:46;;;;;;;98.60;50.13;;;;;;;9.38;92.79;103320.72;7389992;19;20018;-56
2021/12/16 00:54:08;;;;;;;99.18;49.08;;;;;;;9.39;93.02;103319.84;7389019;19;20835;-54
2021/12/16 00:56:15;;;;;;;89.57;49.13;;;;;;;9.38;92.64;103318.97;7384673;19;20021;-58
2021/12/16 00:58:51;;;;;;;94.35;49.50;;;;;;;9.39;92.87;103314.63;7389913;19;20010;-55
2021/12/16 01:01:33;;;;;;;105.68;54.35;;;;;;;9.43;92.92;103319.00;7390157;19;20011;-58
2021/12/16 01:04:26;;;;;;;103.45;52.42;;;;;;;9.41;92.81;103333.81;7390842;19;20047;-57
2021/12/16 01:07:14;;;;;;;102.70;52.42;;;;;;;9.38;92.62;103329.44;7389338;19;20345;-57
2021/12/16 01:34:22;;;;;;;96.57;50.15;;;;;;;9.32;93.00;103350.38;7389578;19;20018;-55
2021/12/16 01:37:34;;;;;;;100.35;50.97;;;;;;;9.31;93.00;103356.47;7389224;19;20018;-57
2021/12/16 01:40:14;;;;;;;105.43;53.53;;;;;;;9.25;92.81;103354.69;7389236;19;20044;-58
2021/12/16 01:45:49;;;;;;;96.13;51.35;;;;;;;9.29;93.42;103361.69;7385516;19;19934;-57
2021/12/16 01:51:04;;;;;;;102.40;51.35;;;;;;;9.34;93.44;103365.22;7386371;19;20107;-55
2021/12/16 01:54:03;;;;;;;101.57;52.03;;;;;;;9.38;93.25;103362.59;7387672;19;20018;-55
2021/12/16 01:56:41;;;;;;;99.05;50.67;;;;;;;9.38;93.11;103360.84;7387612;19;20074;-61
2021/12/16 01:59:16;;;;;;;103.78;55.08;;;;;;;9.41;93.00;103375.69;7386811;19;20021;-58
2021/12/16 02:01:48;;;;;;;111.70;55.05;;;;;;;9.39;93.01;103365.22;7386975;19;20969;-58
2021/12/16 02:04:25;;;;;;;106.20;53.60;;;;;;;9.40;92.86;103366.97;7387516;19;20497;-53
2021/12/16 02:07:08;;;;;;;100.57;51.85;;;;;;;9.37;93.07;103373.91;7387988;19;20019;-53
2021/12/16 02:09:41;;;;;;;105.97;54.88;;;;;;;9.33;92.89;103371.31;7387702;19;20475;-57
2021/12/16 02:12:23;;;;;;;99.55;53.35;;;;;;;9.31;93.16;103373.06;7387765;19;20019;-53
2021/12/16 02:29:14;;;;;;;89.63;50.53;;;;;;;9.32;93.15;103389.63;7390917;19;20053;-57
2021/12/16 02:31:52;;;;;;;96.65;52.88;;;;;;;9.37;93.10;103385.28;7392429;19;20026;-57
2021/12/16 02:34:30;;;;;;;90.28;48.78;;;;;;;9.42;93.13;103380.03;7392137;19;20011;-56
2021/12/16 02:37:02;;;;;;;92.80;50.75;;;;;;;9.44;92.74;103368.72;7394100;19;20082;-57
2021/12/16 02:39:34;;;;;;;91.60;49.60;;;;;;;9.45;92.63;103385.28;7392500;19;20018;-55
2021/12/16 02:42:11;;;;;;;89.35;50.80;;;;;;;9.43;92.31;103382.66;7392451;19;20014;-56
2021/12/16 02:48:28;;;;;;;91.28;50.55;;;;;;;9.38;92.42;103381.78;7395209;19;20490;-55
2021/12/16 02:50:12;;;;;;;89.38;50.15;;;;;;;9.38;92.50;103380.91;7391710;19;20487;-57
2021/12/16 02:52:44;;;;;;;91.80;49.75;;;;;;;9.35;92.42;103377.41;7393157;19;20464;-55
2021/12/16 02:55:15;;;;;;;84.65;47.72;;;;;;;9.35;92.39;103377.41;7392155;19;20018;-58
2021/12/16 02:57:48;;;;;;;93.32;51.53;;;;;;;9.34;92.18;103380.00;7390857;19;20015;-57
2021/12/16 03:00:18;;;;;;;91.63;50.35;;;;;;;9.31;92.18;103382.63;7391808;19;20483;-57
2021/12/16 03:02:50;;;;;;;85.97;48.58;;;;;;;9.27;92.26;103378.25;7391685;19;20095;-57
2021/12/16 03:05:21;;;;;;;81.97;47.60;;;;;;;9.26;92.39;103381.75;7394137;19;20071;-55
2021/12/16 03:07:53;;;;;;;86.78;49.05;;;;;;;9.25;92.46;103380.88;7393403;19;20022;-55
2021/12/16 03:13:09;;;;;;;86.90;49.38;;;;;;;9.16;92.54;103362.53;7390976;19;19997;-54
2021/12/16 03:15:58;;;;;;;89.75;50.10;;;;;;;9.13;92.67;103367.78;7391398;19;20485;-55
2021/12/16 03:18:37;;;;;;;89.50;48.75;;;;;;;9.16;92.76;103371.25;7394017;19;20082;-58
2021/12/16 03:21:15;;;;;;;87.30;48.30;;;;;;;9.14;92.92;103374.72;7393216;19;20021;-57
2021/12/16 03:24:02;;;;;;;85.90;48.88;;;;;;;9.14;92.74;103386.09;7391113;19;20019;-55
2021/12/16 03:29:34;;;;;;;85.20;47.45;;;;;;;9.12;93.06;103384.31;7388993;19;20037;-54
2021/12/16 03:35:03;;;;;;;83.63;48.00;;;;;;;9.18;93.12;103389.56;7389154;19;20030;-58
2021/12/16 03:37:33;;;;;;;89.97;46.92;;;;;;;9.21;92.95;103381.72;7390748;19;20046;-58
2021/12/16 03:40:10;;;;;;;82.65;46.38;;;;;;;9.28;93.00;103383.50;7391157;19;20014;-57
2021/12/16 03:42:42;;;;;;;88.55;48.60;;;;;;;9.29;92.83;103385.25;7391041;19;20014;-58
2021/12/16 03:46:25;;;;;;;81.82;46.72;;;;;;;9.28;92.70;103393.94;7390621;19;20450;-56
2021/12/16 03:48:07;;;;;;;92.88;48.60;;;;;;;9.28;92.60;103390.47;7391769;19;20069;-57
2021/12/16 03:50:36;;;;;;;94.22;49.95;;;;;;;9.24;92.35;103386.09;7392931;19;20021;-57
2021/12/16 03:53:06;;;;;;;87.47;47.70;;;;;;;9.21;92.49;103393.94;7390925;19;20028;-56
2021/12/16 03:55:39;;;;;;;92.30;48.92;;;;;;;9.22;92.59;103396.56;7390629;19;20019;-57
2021/12/16 03:58:08;;;;;;;83.75;46.55;;;;;;;9.26;92.75;103403.56;7392419;19;20489;-57
2021/12/16 04:00:43;;;;;;;87.85;48.58;;;;;;;9.30;92.71;103401.84;7390615;19;20011;-55
2021/12/16 04:03:13;;;;;;;95.45;49.08;;;;;;;9.27;92.50;103402.69;7390836;19;20468;-57
2021/12/16 04:05:44;;;;;;;96.07;50.33;;;;;;;9.28;92.42;103404.41;7392365;19;20021;-58
2021/12/16 04:08:13;;;;;;;94.97;49.30;;;;;;;9.27;92.42;103407.94;7391873;19;20020;-57
2021/12/16 04:10:52;;;;;;;86.88;47.85;;;;;;;9.25;92.28;103400.94;7392847;19;20010;-53
2021/12/16 04:13:21;;;;;;;80.90;45.75;;;;;;;9.25;92.59;103399.19;7389643;19;20021;-53
2021/12/16 04:15:50;;;;;;;95.97;49.72;;;;;;;9.26;92.45;103389.59;7389500;19;20014;-57
2021/12/16 04:18:19;;;;;;;84.28;47.58;;;;;;;9.26;92.53;103395.72;7390026;19;20026;-53
2021/12/16 04:20:49;;;;;;;91.75;48.33;;;;;;;9.22;92.25;103391.31;7389995;19;20015;-58
2021/12/16 04:23:19;;;;;;;88.68;48.30;;;;;;;9.19;92.56;103388.72;7390175;19;20014;-58
2021/12/16 04:25:51;;;;;;;94.63;48.88;;;;;;;9.17;92.79;103383.47;7388783;19;20010;-58
2021/12/16 04:28:25;;;;;;;106.13;50.25;;;;;;;9.11;92.78;103383.47;7389891;19;20010;-57
2021/12/16 04:30:54;;;;;;;100.68;49.50;;;;;;;9.11;92.94;103395.66;7389525;19;20011;-63
2021/12/16 04:33:23;;;;;;;97.00;51.72;;;;;;;9.04;93.09;103386.94;7389690;19;20330;-56
2021/12/16 04:35:52;;;;;;;102.32;50.40;;;;;;;8.99;93.36;103389.50;7388839;19;20018;-57
2021/12/16 04:38:21;;;;;;;98.22;50.03;;;;;;;8.95;93.58;103405.19;7391595;19;20119;-57
2021/12/16 04:40:53;;;;;;;105.07;51.85;;;;;;;8.96;93.88;103406.94;7391366;19;20327;-57
2021/12/16 04:43:23;;;;;;;99.93;48.70;;;;;;;8.98;94.29;103413.94;7391448;19;20006;-53
2021/12/16 04:45:53;;;;;;;97.60;49.88;;;;;;;9.00;94.12;103421.78;7390687;19;20015;-54
2021/12/16 04:48:22;;;;;;;103.65;54.67;;;;;;;9.02;94.10;103412.19;7389685;19;20483;-50
2021/12/16 04:50:51;;;;;;;104.05;51.53;;;;;;;9.05;94.17;103413.94;7389598;19;20025;-50
2021/12/16 04:53:20;;;;;;;103.32;52.17;;;;;;;9.10;94.14;103425.31;7390219;19;20014;-51
2021/12/16 04:55:49;;;;;;;100.15;50.78;;;;;;;9.17;94.19;103414.88;7388627;19;20028;-57
2021/12/16 04:58:20;;;;;;;99.13;50.50;;;;;;;9.22;93.89;103416.63;7389579;19;20134;-55
2021/12/16 05:00:49;;;;;;;100.18;49.17;;;;;;;9.25;93.60;103430.56;7389074;19;20014;-52
2021/12/16 05:03:18;;;;;;;98.63;49.20;;;;;;;9.27;93.49;103433.19;7389347;19;20485;-55
2021/12/16 05:05:47;;;;;;;99.65;48.45;;;;;;;9.27;93.22;103426.25;7390232;19;20021;-58
2021/12/16 05:08:16;;;;;;;100.57;50.38;;;;;;;9.24;93.20;103434.09;7391009;19;20018;-55
2021/12/16 05:10:46;;;;;;;100.80;48.10;;;;;;;9.27;93.21;103430.56;7388659;19;20102;-56
2021/12/16 05:13:15;;;;;;;87.38;46.17;;;;;;;9.29;93.25;103428.88;7388797;19;20015;-57
2021/12/16 05:15:47;;;;;;;95.63;46.42;;;;;;;9.30;93.17;103430.63;7388794;19;20118;-59
2021/12/16 05:18:22;;;;;;;94.43;47.60;;;;;;;9.32;93.13;103424.50;7388596;19;20006;-54
2021/12/16 05:20:51;;;;;;;95.75;48.88;;;;;;;9.32;92.80;103429.72;7387949;19;20023;-57
2021/12/16 05:28:48;;;;;;;84.25;45.08;;;;;;;9.36;92.64;103435.84;7387883;19;20029;-52
2021/12/16 05:31:20;;;;;;;83.38;44.45;;;;;;;9.39;92.50;103435.88;7388421;19;20472;-55
2021/12/16 05:33:50;;;;;;;89.07;45.95;;;;;;;9.42;92.29;103435.00;7390440;19;20015;-55
2021/12/16 05:36:20;;;;;;;87.25;44.78;;;;;;;9.43;92.22;103437.63;7389221;19;20021;-56
2021/12/16 05:38:49;;;;;;;84.90;43.70;;;;;;;9.36;91.96;103438.47;7389407;19;20014;-52
2021/12/16 05:41:21;;;;;;;80.15;42.08;;;;;;;9.38;92.16;103444.56;7389400;19;20014;-57
2021/12/16 05:43:51;;;;;;;82.97;41.95;;;;;;;9.40;92.23;103445.47;7387705;19;20550;-53
2021/12/16 05:46:24;;;;;;;76.85;41.13;;;;;;;9.43;92.03;103440.25;7387435;19;20125;-51
2021/12/16 05:48:54;;;;;;;84.28;43.10;;;;;;;9.39;91.97;103450.69;7391413;19;20023;-51
2021/12/16 05:51:27;;;;;;;81.25;42.17;;;;;;;9.35;92.09;103450.66;7388043;19;20014;-56
2021/12/16 05:53:56;;;;;;;80.07;42.60;;;;;;;9.37;92.22;103453.31;7389446;19;20493;-55
2021/12/16 05:56:25;;;;;;;76.63;41.55;;;;;;;9.34;92.06;103454.19;7400938;19;20010;-56
2021/12/16 05:58:54;;;;;;;82.18;41.80;;;;;;;9.31;92.10;103455.88;7402323;19;20014;-56
2021/12/16 06:01:31;;;;;;;70.32;38.70;;;;;;;9.24;92.10;103460.25;7402739;19;20014;-53
2021/12/16 06:04:00;;;;;;;70.20;39.85;;;;;;;9.18;92.25;103465.44;7401202;19;20011;-54
2021/12/16 06:06:30;;;;;;;74.18;40.92;;;;;;;9.13;92.46;103468.03;7401940;19;20017;-55
2021/12/16 06:09:01;;;;;;;85.30;43.28;;;;;;;9.14;92.48;103472.41;7400774;19;20310;-58
2021/12/16 06:11:32;;;;;;;81.40;42.15;;;;;;;9.18;92.78;103470.66;7400711;19;20022;-49
2021/12/16 06:14:13;;;;;;;78.38;39.67;;;;;;;9.23;92.74;103471.56;7401768;19;20042;-56
2021/12/16 06:22:35;;;;;;;76.85;40.15;;;;;;;9.09;92.53;103468.03;7401917;19;20026;-55
2021/12/16 06:27:50;;;;;;;65.47;36.90;;;;;;;8.87;92.88;103477.47;7402040;19;19926;-52
2021/12/16 06:30:21;;;;;;;67.07;36.33;;;;;;;8.85;93.29;103481.84;7401038;19;20102;-56
2021/12/16 06:32:53;;;;;;;69.28;35.58;;;;;;;8.89;93.46;103481.00;7400626;19;20483;-55
2021/12/16 06:35:23;;;;;;;69.65;37.40;;;;;;;8.89;93.61;103492.31;7400164;19;20011;-55
2021/12/16 06:37:52;;;;;;;74.80;40.22;;;;;;;8.90;93.64;103493.22;7403613;19;20021;-56
2021/12/16 06:40:22;;;;;;;68.68;36.28;;;;;;;8.90;93.51;103499.31;7405966;19;20053;-57
2021/12/16 06:42:53;;;;;;;70.47;38.92;;;;;;;8.93;93.71;103496.69;7400798;19;20014;-55
2021/12/16 06:45:27;;;;;;;77.87;39.00;;;;;;;8.94;93.57;103492.34;7400341;19;20026;-56
2021/12/16 06:48:03;;;;;;;73.53;38.92;;;;;;;8.98;93.51;103515.94;7402110;19;20070;-53
2021/12/16 06:50:41;;;;;;;77.65;39.92;;;;;;;9.05;93.68;103508.09;7400848;19;20014;-56
2021/12/16 06:53:14;;;;;;;76.53;40.15;;;;;;;9.09;93.33;103509.88;7400351;19;20121;-55
2021/12/16 06:55:49;;;;;;;75.55;39.45;;;;;;;9.11;93.22;103503.78;7402250;19;20115;-56
2021/12/16 06:58:24;;;;;;;79.00;40.60;;;;;;;9.15;93.05;103508.16;7401490;19;20444;-58
2021/12/16 07:01:04;;;;;;;79.28;40.60;;;;;;;9.17;92.89;103503.81;7400476;19;20025;-57
2021/12/16 07:03:45;;;;;;;76.45;39.90;;;;;;;9.20;92.87;103505.56;7399994;19;20021;-55
2021/12/16 07:06:14;;;;;;;75.85;40.70;;;;;;;9.22;92.58;103508.19;7397808;19;20096;-56
2021/12/16 07:08:43;;;;;;;75.00;39.25;;;;;;;9.23;92.59;103508.19;7394965;19;20081;-57
2021/12/16 07:11:12;;;;;;;76.80;40.58;;;;;;;9.23;92.41;103515.19;7392734;19;20021;-55
2021/12/16 07:13:45;;;;;;;79.35;41.88;;;;;;;9.18;92.56;103523.88;7394762;19;20086;-58
2021/12/16 07:16:16;;;;;;;72.78;38.45;;;;;;;9.19;92.79;103529.97;7394546;19;20020;-54
2021/12/16 07:18:47;;;;;;;74.45;39.78;;;;;;;9.22;92.50;103540.44;7396875;19;20017;-57
2021/12/16 07:21:16;;;;;;;70.97;38.15;;;;;;;9.25;92.41;103543.09;7396910;19;20014;-57
2021/12/16 07:23:45;;;;;;;69.60;37.92;;;;;;;9.21;92.63;103543.06;7396986;19;20022;-56
2021/12/16 07:26:14;;;;;;;70.47;38.03;;;;;;;9.21;92.47;103550.91;7397881;19;20017;-52
2021/12/16 07:28:43;;;;;;;74.32;38.15;;;;;;;9.23;92.49;103557.91;7402363;19;20479;-55
2021/12/16 07:31:12;;;;;;;63.92;36.15;;;;;;;9.25;92.55;103569.25;7398663;19;20011;-56
2021/12/16 07:33:41;;;;;;;70.85;37.13;;;;;;;9.25;92.52;103564.00;7398997;19;20098;-58
2021/12/16 07:36:18;;;;;;;69.30;36.78;;;;;;;9.26;92.37;103571.00;7395928;19;20015;-56
2021/12/16 07:38:47;;;;;;;73.55;38.10;;;;;;;9.27;92.24;103584.94;7392882;19;20007;-53
2021/12/16 07:41:20;;;;;;;68.95;36.15;;;;;;;9.28;92.22;103590.19;7393608;19;20015;-56
2021/12/16 07:43:58;;;;;;;;;;;;;;;9.28;92.17;103592.81;7399800;19;20439;-55
2021/12/16 07:46:28;;;;;;;70.40;34.45;;;;;;;9.29;92.13;103597.19;7392012;19;19933;-55
2021/12/16 07:48:57;;;;;;;58.70;31.70;;;;;;;9.33;92.20;103605.94;7394064;19;20013;-57
2021/12/16 07:51:29;;;;;;;68.82;35.05;;;;;;;9.31;91.78;103594.56;7392382;19;20025;-57
2021/12/16 07:53:57;;;;;;;67.45;34.38;;;;;;;9.30;91.82;103593.72;7391749;19;20024;-57
2021/12/16 07:56:26;;;;;;;62.03;32.78;;;;;;;9.29;91.87;103602.41;7391722;19;20512;-57
2021/12/16 07:58:56;;;;;;;67.43;35.58;;;;;;;9.25;92.04;103603.25;7393012;19;20015;-55
2021/12/16 08:01:26;;;;;;;68.75;36.58;;;;;;;9.23;92.13;103605.00;7394614;19;20038;-56
2021/12/16 08:03:56;;;;;;;72.20;36.85;;;;;;;9.27;92.16;103613.72;7394635;19;20011;-52
2021/12/16 08:06:30;;;;;;;69.97;36.17;;;;;;;9.26;92.24;103618.09;7395685;19;20023;-58
2021/12/16 08:09:02;;;;;;;68.22;35.78;;;;;;;9.28;92.12;103605.88;7392407;19;20487;-56
2021/12/16 08:11:34;;;;;;;66.65;36.75;;;;;;;9.22;91.76;103611.09;7391977;19;20086;-54
2021/12/16 08:14:04;;;;;;;67.60;35.65;;;;;;;9.18;91.81;103620.69;7371599;19;20014;-54
2021/12/16 08:16:33;;;;;;;65.32;34.65;;;;;;;9.21;92.05;103625.03;7391272;19;20018;-57
2021/12/16 08:19:03;;;;;;;64.15;34.92;;;;;;;9.21;91.97;103621.56;7391188;19;20010;-54
2021/12/16 08:21:35;;;;;;;64.32;35.45;;;;;;;9.16;92.05;103632.84;7391609;19;20302;-57
2021/12/16 08:24:08;;;;;;;66.13;35.73;;;;;;;9.15;92.12;103625.00;7393723;19;20014;-57
2021/12/16 08:26:38;;;;;;;70.03;36.22;;;;;;;9.13;92.10;103634.59;7392909;19;20231;-57
2021/12/16 08:29:08;;;;;;;63.90;36.38;;;;;;;9.10;92.30;103643.28;7390900;19;20019;-55
2021/12/16 08:31:37;;;;;;;64.47;34.83;;;;;;;9.08;92.29;103629.31;7391397;19;20073;-54
2021/12/16 08:34:07;;;;;;;64.47;34.63;;;;;;;9.00;92.40;103637.09;7390892;19;20073;-56
2021/12/16 08:36:38;;;;;;;65.07;33.83;;;;;;;8.97;92.53;103636.22;7390204;19;20472;-54
2021/12/16 08:39:10;;;;;;;72.30;37.10;;;;;;;8.93;92.82;103637.91;7390813;19;20098;-55
2021/12/16 08:41:43;;;;;;;64.80;34.08;;;;;;;8.98;92.87;103645.78;7393050;19;20014;-53
2021/12/16 08:44:13;;;;;;;65.88;35.28;;;;;;;9.02;92.99;103651.94;7390865;19;20015;-54
2021/12/16 08:46:46;;;;;;;67.55;35.45;;;;;;;9.00;92.86;103654.53;7390450;19;20018;-54
2021/12/16 08:49:15;;;;;;;65.68;36.80;;;;;;;8.99;92.95;103655.41;7392819;19;20070;-50
2021/12/16 08:51:50;;;;;;;66.45;34.03;;;;;;;8.98;92.91;103657.16;7390550;19;20049;-50
2021/12/16 08:54:22;;;;;;;60.30;32.80;;;;;;;8.89;92.91;103643.97;7391784;19;20018;-51
2021/12/16 08:56:51;;;;;;;61.28;32.97;;;;;;;8.88;93.06;103657.03;7390711;19;20017;-51
2021/12/16 08:59:20;;;;;;;58.80;32.50;;;;;;;8.93;93.24;103664.06;7391222;19;20021;-54
2021/12/16 09:01:54;;;;;;;61.47;34.58;;;;;;;8.91;93.29;103665.81;7390757;19;20018;-51
2021/12/16 09:04:24;;;;;;;59.05;33.47;;;;;;;8.90;93.30;103665.78;7391487;19;20095;-52
2021/12/16 09:06:59;;;;;;;64.20;35.28;;;;;;;8.92;93.46;103661.44;7391408;19;20015;-50
2021/12/16 09:09:32;;;;;;;67.07;35.35;;;;;;;8.93;93.45;103665.81;7390060;19;20041;-50
2021/12/16 09:12:08;;;;;;;59.20;34.65;;;;;;;8.96;93.49;103660.59;7390480;19;20014;-54
2021/12/16 09:14:38;;;;;;;62.20;35.47;;;;;;;8.92;93.35;103671.91;7389751;19;20018;-51
2021/12/16 09:17:11;;;;;;;66.80;35.97;;;;;;;8.96;93.50;103671.06;7389876;19;20096;-52
2021/12/16 09:19:40;;;;;;;63.85;34.58;;;;;;;8.93;93.52;103671.91;7390232;19;20467;-55
2021/12/16 09:22:15;;;;;;;64.22;34.60;;;;;;;8.93;93.44;103671.06;7389955;19;20019;-55
2021/12/16 09:24:45;;;;;;;56.85;32.30;;;;;;;8.89;93.50;103677.13;7389429;19;20025;-54
2021/12/16 09:27:14;;;;;;;77.25;34.78;;;;;;;8.89;93.69;103680.59;7388871;19;20019;-55
2021/12/16 09:29:44;;;;;;;59.72;33.10;;;;;;;8.83;93.74;103672.69;7387626;19;20006;-55
2021/12/16 09:32:13;;;;;;;59.60;32.85;;;;;;;8.81;93.90;103674.41;7390235;19;20021;-55
2021/12/16 09:34:44;;;;;;;68.25;34.25;;;;;;;8.83;94.08;103680.53;7389837;19;20015;-53
2021/12/16 09:37:16;;;;;;;61.33;35.20;;;;;;;8.78;94.09;103674.38;7389023;19;20019;-58
2021/12/16 09:39:45;;;;;;;61.92;34.42;;;;;;;8.76;94.16;103674.38;7390842;19;20465;-55
2021/12/16 09:42:14;;;;;;;59.80;33.47;;;;;;;8.82;94.26;103676.16;7390792;19;20017;-54
2021/12/16 09:44:43;;;;;;;70.28;35.58;;;;;;;8.87;94.38;103670.97;7390700;19;20496;-53
2021/12/16 09:47:14;;;;;;;62.20;33.35;;;;;;;8.87;94.17;103682.34;7390731;19;20014;-50
2021/12/16 09:49:44;;;;;;;79.53;36.33;;;;;;;8.90;94.19;103691.94;7391320;19;20357;-54
2021/12/16 09:52:16;;;;;;;60.75;33.60;;;;;;;8.89;94.14;103698.03;7388691;19;20497;-55
2021/12/16 09:54:46;;;;;;;63.33;32.97;;;;;;;8.90;94.05;103698.03;7388475;19;20418;-54
2021/12/16 09:57:18;;;;;;;64.35;33.45;;;;;;;8.95;94.17;103698.06;7388363;19;20014;-54
2021/12/16 09:59:48;;;;;;;64.45;34.55;;;;;;;9.00;94.07;103697.25;7391005;19;20010;-54
2021/12/16 10:02:20;;;;;;;61.85;33.33;;;;;;;9.07;94.01;103697.31;7390267;19;20406;-55
2021/12/16 10:04:49;;;;;;;68.83;32.80;;;;;;;9.06;93.71;103699.06;7390586;19;20011;-50
2021/12/16 10:07:24;;;;;;;55.10;30.95;;;;;;;9.04;93.54;103702.50;7386906;19;20021;-54
2021/12/16 10:09:56;;;;;;;68.45;34.40;;;;;;;9.04;93.36;103692.94;7390532;19;20433;-53
2021/12/16 10:12:30;;;;;;;57.88;31.92;;;;;;;9.02;93.20;103699.88;7387327;19;20429;-54
2021/12/16 10:17:21;;;;;;;59.70;34.20;;;;;;;9.06;93.25;103706.03;7387810;19;20014;-54
2021/12/16 10:17:55;;;;;;;59.22;32.00;;;;;;;9.07;93.29;103700.81;7388857;19;20516;-52
2021/12/16 10:20:29;;;;;;;56.13;31.83;;;;;;;9.09;93.18;103704.31;7390655;19;20368;-49
2021/12/16 10:23:08;;;;;;;60.15;32.60;;;;;;;9.04;93.32;103706.03;7387899;19;20485;-53
2021/12/16 10:25:41;;;;;;;60.60;33.25;;;;;;;9.07;93.41;103706.03;7387310;19;20136;-51
2021/12/16 10:28:11;;;;;;;;;;;;;;;9.12;93.51;103712.16;7388147;19;20045;-52
2021/12/16 10:30:44;;;;;;;60.28;31.33;;;;;;;9.15;93.28;103711.31;7387912;19;20259;-51
2021/12/16 10:33:31;;;;;;;62.88;33.42;;;;;;;9.17;93.11;103707.00;7387822;19;20017;-52
2021/12/16 10:36:12;;;;;;;58.22;31.80;;;;;;;9.08;92.88;103699.94;7386531;19;20041;-50
2021/12/16 10:38:48;;;;;;;60.58;33.05;;;;;;;9.03;92.83;103699.03;7389745;19;20466;-54
2021/12/16 10:41:21;;;;;;;61.58;32.80;;;;;;;8.96;93.15;103698.09;7389915;19;20018;-55
2021/12/16 10:43:52;;;;;;;63.28;32.85;;;;;;;9.00;93.54;103706.84;7395407;19;20003;-58
2021/12/16 10:46:24;;;;;;;62.55;32.83;;;;;;;9.04;93.73;103703.41;7396344;19;20022;-60
2021/12/16 10:48:58;;;;;;;61.83;32.43;;;;;;;9.01;93.22;103708.59;7396413;19;20021;-61
2021/12/16 10:51:30;;;;;;;63.13;33.13;;;;;;;9.00;93.23;103709.47;7395083;19;20014;-59
2021/12/16 10:54:20;;;;;;;61.83;32.53;;;;;;;9.00;93.42;103712.94;7394151;19;20025;-60
2021/12/16 10:57:00;;;;;;;61.83;33.35;;;;;;;8.95;93.14;103703.31;7394920;19;20023;-59
2021/12/16 10:59:33;;;;;;;64.78;33.55;;;;;;;8.95;93.56;103701.56;7396241;19;20010;-57
2021/12/16 11:02:21;;;;;;;73.25;35.53;;;;;;;9.00;93.75;103697.25;7394080;19;20010;-59
2021/12/16 11:04:52;;;;;;;65.57;33.33;;;;;;;9.05;93.78;103702.53;7395666;19;20015;-59
2021/12/16 11:07:26;;;;;;;63.93;31.67;;;;;;;9.07;93.76;103694.69;7395755;19;20018;-59
2021/12/16 11:10:09;;;;;;;68.97;32.58;;;;;;;9.05;93.35;103685.97;7393798;19;20271;-60
2021/12/16 11:12:48;;;;;;;63.75;32.28;;;;;;;9.06;93.18;103692.97;7393806;19;20042;-59
2021/12/16 11:15:22;;;;;;;60.80;29.73;;;;;;;9.08;93.21;103701.69;7395942;19;20026;-54
2021/12/16 11:17:56;;;;;;;144.07;32.45;;;;;;;9.04;92.60;103708.63;7395283;19;20021;-58
2021/12/16 11:20:37;;;;;;;61.92;30.35;;;;;;;8.90;92.54;103700.66;7394670;19;20014;-61
2021/12/16 11:23:10;;;;;;;59.35;30.50;;;;;;;8.87;92.76;103698.03;7394063;19;20021;-60
2021/12/16 11:25:44;;;;;;;70.63;32.15;;;;;;;8.91;93.01;103696.28;7395394;19;20010;-56
2021/12/16 11:28:22;;;;;;;65.95;32.60;;;;;;;8.96;93.09;103705.94;7395192;19;20014;-57
2021/12/16 11:30:55;;;;;;;64.05;33.28;;;;;;;9.02;93.11;103705.13;7392742;19;20015;-56
2021/12/16 11:33:32;;;;;;;58.78;31.25;;;;;;;9.00;92.88;103704.25;7394039;19;20039;-59
2021/12/16 11:36:05;;;;;;;59.20;30.17;;;;;;;8.95;92.74;103711.16;7394498;19;20058;-56
2021/12/16 11:38:37;;;;;;;59.92;32.45;;;;;;;8.91;92.90;103706.75;7395057;19;20040;-58
2021/12/16 11:41:11;;;;;;;;;;;;;;;8.89;92.90;103713.72;7395731;19;20014;-59
2021/12/16 11:43:41;;;;;;;;;;;;;;;8.92;93.19;103711.13;7394007;19;19982;-59
2021/12/16 11:46:18;;;;;;;56.03;29.08;;;;;;;8.83;92.68;103701.47;7393933;19;20010;-59
2021/12/16 11:48:47;;;;;;;54.55;29.35;;;;;;;8.84;92.55;103705.84;7394641;19;20017;-59
2021/12/16 11:51:20;;;;;;;55.30;29.77;;;;;;;8.86;92.73;103703.25;7394126;19;20134;-59
2021/12/16 11:53:50;;;;;;;;;;;;;;;8.90;92.66;103703.28;7391430;19;20412;-57
2021/12/16 11:56:34;;;;;;;52.72;28.55;;;;;;;8.93;92.74;103702.44;7391647;19;19930;-59
2021/12/16 11:59:03;;;;;;;48.53;26.98;;;;;;;8.91;92.36;103699.81;7395670;19;20078;-60
2021/12/16 12:01:31;;;;;;;87.35;27.73;;;;;;;8.90;92.19;103695.44;7392348;19;20127;-59
2021/12/16 12:04:07;;;;;;;42.70;26.52;;;;;;;8.78;91.86;103703.16;7392112;19;20101;-56
2021/12/16 12:06:37;;;;;;;50.22;27.48;;;;;;;8.73;92.18;103705.72;7393697;19;20341;-58
2021/12/16 12:09:09;;;;;;;50.03;28.65;;;;;;;8.72;92.38;103706.56;7392272;19;20453;-54
2021/12/16 12:11:43;;;;;;;51.28;29.58;;;;;;;8.77;92.66;103710.13;7393592;19;20347;-59
2021/12/16 12:14:17;;;;;;;49.97;29.20;;;;;;;8.81;92.66;103706.69;7391175;19;20024;-61
2021/12/16 12:16:49;;;;;;;52.05;29.15;;;;;;;8.87;92.41;103712.81;7393393;19;20103;-59
2021/12/16 12:19:21;;;;;;;59.95;31.27;;;;;;;8.90;92.50;103712.88;7391299;19;20035;-58
2021/12/16 12:21:55;;;;;;;50.23;27.80;;;;;;;8.88;91.90;103719.81;7393346;19;20025;-58
2021/12/16 12:24:27;;;;;;;55.13;28.60;;;;;;;8.85;92.23;103719.78;7391655;19;20293;-61
2021/12/16 12:27:02;;;;;;;48.55;27.58;;;;;;;8.88;92.30;103719.81;7392390;19;20026;-58
2021/12/16 12:29:33;;;;;;;53.58;28.88;;;;;;;8.92;92.28;103716.34;7391622;19;20017;-59
2021/12/16 12:32:05;;;;;;;48.00;27.03;;;;;;;8.95;92.22;103713.75;7391473;19;20018;-57
2021/12/16 12:34:36;;;;;;;48.72;27.38;;;;;;;8.94;92.08;103709.38;7393355;19;20342;-58
2021/12/16 12:37:09;;;;;;;44.47;28.45;;;;;;;8.87;92.01;103711.09;7392044;19;20018;-58
2021/12/16 12:39:42;;;;;;;48.13;29.33;;;;;;;8.77;92.29;103715.34;7396613;19;20019;-62
2021/12/16 12:42:15;;;;;;;52.13;28.65;;;;;;;8.79;92.57;103715.38;7391564;19;20029;-58
2021/12/16 12:44:47;;;;;;;45.35;28.45;;;;;;;8.81;92.63;103708.41;7391401;19;20057;-58
2021/12/16 12:47:18;;;;;;;46.42;28.42;;;;;;;8.83;92.40;103704.94;7390981;19;20014;-59
2021/12/16 12:49:47;;;;;;;45.85;27.60;;;;;;;8.87;92.24;103711.09;7392273;19;20391;-60
2021/12/16 12:52:20;;;;;;;52.10;29.15;;;;;;;8.89;92.34;103719.81;7390653;19;20018;-58
2021/12/16 12:55:01;;;;;;;50.78;27.77;;;;;;;8.89;92.33;103722.44;7390346;19;20459;-59
2021/12/16 12:57:35;;;;;;;54.67;30.60;;;;;;;8.90;92.23;103721.56;7391435;19;20014;-60
2021/12/16 13:00:07;;;;;;;47.20;27.35;;;;;;;8.87;92.04;103720.66;7390359;19;20021;-61
2021/12/16 13:02:41;;;;;;;42.70;26.33;;;;;;;8.89;92.05;103708.50;7390463;19;20070;-59
2021/12/16 13:05:13;;;;;;;49.47;28.85;;;;;;;8.90;92.09;103720.72;7390357;19;20024;-60
2021/12/16 13:07:45;;;;;;;48.70;28.75;;;;;;;8.90;92.05;103716.34;7391091;19;20359;-60
2021/12/16 13:10:17;;;;;;;50.78;28.98;;;;;;;8.90;92.13;103726.81;7390596;19;20427;-58
2021/12/16 13:12:56;;;;;;;49.38;28.80;;;;;;;8.93;92.07;103712.88;7392080;19;20082;-57
2021/12/16 13:15:39;;;;;;;53.63;30.27;;;;;;;8.94;92.11;103710.28;7391058;19;20007;-55
2021/12/16 13:23:48;;;;;;;52.55;30.42;;;;;;;9.04;91.98;103720.81;7390097;19;20014;-61
2021/12/16 13:29:12;;;;;;;52.78;30.27;;;;;;;9.08;91.97;103720.00;7389285;19;20033;-59